createdAt,value
2019-02-20T00:02:21.281Z,17.80
2019-02-20T00:05:11.620Z,17.77
2019-02-20T00:08:02.023Z,18.07
2019-02-20T00:10:52.009Z,18.60
2019-02-20T00:13:42.451Z,17.53
2019-02-20T00:16:32.765Z,17.80
2019-02-20T00:19:23.107Z,17.57
2019-02-20T00:22:13.476Z,18.50
2019-02-20T00:25:04.365Z,17.20
2019-02-20T00:27:54.744Z,17.57
2019-02-20T00:30:44.980Z,17.70
2019-02-20T00:33:35.245Z,18.00
2019-02-20T00:36:25.671Z,18.80
2019-02-20T00:39:15.942Z,18.30
2019-02-20T00:42:06.037Z,17.77
2019-02-20T00:45:14.191Z,17.63
2019-02-20T00:48:21.049Z,17.90
2019-02-20T00:51:25.576Z,18.43
2019-02-20T00:54:16.351Z,18.30
2019-02-20T00:57:06.371Z,19.97
2019-02-20T00:59:57.966Z,19.03
2019-02-20T01:02:48.029Z,18.40
2019-02-20T01:05:38.265Z,19.70
2019-02-20T01:08:28.617Z,19.30
2019-02-20T01:11:19.379Z,19.43
2019-02-20T01:14:09.779Z,18.50
2019-02-20T01:17:00.353Z,18.63
2019-02-20T01:19:50.639Z,19.10
2019-02-20T01:22:41.945Z,18.80
2019-02-20T01:25:32.189Z,19.37
2019-02-20T01:28:22.348Z,20.27
2019-02-20T01:31:12.793Z,20.77
2019-02-20T01:34:03.327Z,19.40
2019-02-20T01:36:53.355Z,19.90
2019-02-20T01:39:44.311Z,19.80
2019-02-20T01:42:34.391Z,20.50
2019-02-20T01:45:24.807Z,21.20
2019-02-20T01:48:15.238Z,19.67
2019-02-20T01:51:05.547Z,18.60
2019-02-20T01:53:56.808Z,20.13
2019-02-20T01:56:47.173Z,19.97
2019-02-20T01:59:37.695Z,20.37
2019-02-20T02:02:27.957Z,20.30
2019-02-20T02:05:19.167Z,21.27
2019-02-20T02:08:09.540Z,20.23
2019-02-20T02:11:02.447Z,20.27
2019-02-20T02:13:52.591Z,21.93
2019-02-20T02:16:42.958Z,22.10
2019-02-20T02:19:33.894Z,22.00
2019-02-20T02:22:24.107Z,20.47
2019-02-20T02:25:14.620Z,20.87
2019-02-20T02:28:04.849Z,22.33
2019-02-20T02:30:55.236Z,19.73
2019-02-20T02:33:45.437Z,21.07
2019-02-20T02:36:35.956Z,21.87
2019-02-20T02:39:26.384Z,19.50
2019-02-20T02:42:16.581Z,19.00
2019-02-20T02:45:06.999Z,17.57
2019-02-20T02:47:56.973Z,18.20
2019-02-20T02:50:46.989Z,16.93
2019-02-20T02:53:37.140Z,18.20
2019-02-20T02:56:27.269Z,16.80
2019-02-20T02:59:17.376Z,16.13
2019-02-20T03:02:07.645Z,16.53
2019-02-20T03:04:58.233Z,16.03
2019-02-20T03:07:48.793Z,16.90
2019-02-20T03:10:39.056Z,16.50
2019-02-20T03:13:29.012Z,15.60
2019-02-20T03:16:19.440Z,16.90
2019-02-20T03:19:09.697Z,16.57
2019-02-20T03:21:59.969Z,15.73
2019-02-20T03:24:50.302Z,17.23
2019-02-20T03:27:40.612Z,17.30
2019-02-20T03:30:31.665Z,17.83
2019-02-20T03:33:22.001Z,16.97
2019-02-20T03:36:12.683Z,17.53
2019-02-20T03:39:02.885Z,17.00
2019-02-20T03:41:54.812Z,16.43
2019-02-20T03:44:44.946Z,16.13
2019-02-20T03:47:35.155Z,16.73
2019-02-20T03:50:25.549Z,16.90
2019-02-20T03:53:15.843Z,15.40
2019-02-20T03:56:06.294Z,14.07
2019-02-20T03:58:56.571Z,11.90
2019-02-20T04:01:46.823Z,12.63
2019-02-20T04:04:37.150Z,11.73
2019-02-20T04:07:27.666Z,11.30
2019-02-20T04:10:17.931Z,11.13
2019-02-20T04:13:08.161Z,11.33
2019-02-20T04:15:58.102Z,12.57
2019-02-20T04:18:48.539Z,14.03
2019-02-20T04:21:38.566Z,14.40
2019-02-20T04:24:29.007Z,15.37
2019-02-20T04:27:19.363Z,13.03
2019-02-20T04:30:09.545Z,11.07
2019-02-20T04:32:59.898Z,10.07
2019-02-20T04:35:50.396Z,10.40
2019-02-20T04:38:40.765Z,11.00
2019-02-20T04:41:31.166Z,11.03
2019-02-20T04:44:21.486Z,11.20
2019-02-20T04:47:11.846Z,12.17
2019-02-20T04:50:02.160Z,12.97
2019-02-20T04:52:53.676Z,13.47
2019-02-20T04:55:43.902Z,15.17
2019-02-20T04:58:34.305Z,13.13
2019-02-20T05:01:24.492Z,12.30
2019-02-20T05:04:14.849Z,14.37
2019-02-20T05:07:05.250Z,14.73
2019-02-20T05:09:55.408Z,15.70
2019-02-20T05:12:45.715Z,17.40
2019-02-20T05:15:35.888Z,16.53
2019-02-20T05:18:26.999Z,17.93
2019-02-20T05:21:17.252Z,17.93
2019-02-20T05:24:07.195Z,19.53
2019-02-20T05:26:57.810Z,19.43
2019-02-20T05:29:47.976Z,20.47
2019-02-20T05:32:38.491Z,20.00
2019-02-20T05:35:29.078Z,22.83
2019-02-20T05:38:19.671Z,20.73
2019-02-20T05:41:10.109Z,19.70
2019-02-20T05:44:00.588Z,19.53
2019-02-20T05:46:50.858Z,19.30
2019-02-20T05:49:41.025Z,17.50
2019-02-20T05:52:31.322Z,18.37
2019-02-20T05:55:21.623Z,17.50
2019-02-20T05:58:12.805Z,15.87
2019-02-20T06:01:03.265Z,15.33
2019-02-20T06:03:53.598Z,15.00
2019-02-20T06:06:44.303Z,14.00
2019-02-20T06:09:35.724Z,14.33
2019-02-20T06:12:26.441Z,13.70
2019-02-20T06:15:16.671Z,12.33
2019-02-20T06:18:07.365Z,13.03
2019-02-20T06:20:57.356Z,12.80
2019-02-20T06:23:47.698Z,13.33
2019-02-20T06:26:37.991Z,13.00
2019-02-20T06:29:28.144Z,12.77
2019-02-20T06:32:18.448Z,12.70
2019-02-20T06:35:08.836Z,13.50
2019-02-20T06:37:59.344Z,12.37
2019-02-20T06:40:49.931Z,15.33
2019-02-20T06:43:40.974Z,18.98
2019-02-20T06:46:31.676Z,15.65
2019-02-20T06:49:22.543Z,13.03
2019-02-20T06:52:13.487Z,13.08
2019-02-20T06:55:04.355Z,11.95
2019-02-20T06:57:55.120Z,12.35
2019-02-20T07:00:45.994Z,12.43
2019-02-20T07:03:37.107Z,11.38
2019-02-20T07:06:41.847Z,11.35
2019-02-20T07:10:08.318Z,11.40
2019-02-20T07:13:36.541Z,12.07
2019-02-20T07:16:57.351Z,11.05
2019-02-20T07:20:24.079Z,12.05
2019-02-20T07:23:40.189Z,10.90
2019-02-20T07:27:24.383Z,11.95
2019-02-20T07:30:15.315Z,11.85
2019-02-20T07:33:08.975Z,11.97
2019-02-20T07:35:59.633Z,10.72
2019-02-20T07:38:50.522Z,11.15
2019-02-20T07:41:41.511Z,11.28
2019-02-20T07:44:32.530Z,11.48
2019-02-20T07:47:23.606Z,11.40
2019-02-20T07:50:18.265Z,12.13
2019-02-20T07:53:09.084Z,11.25
2019-02-20T07:55:59.691Z,11.55
2019-02-20T07:58:50.570Z,12.13
2019-02-20T08:01:41.498Z,11.55
2019-02-20T08:04:32.361Z,11.05
2019-02-20T08:07:22.973Z,11.00
2019-02-20T08:10:14.288Z,10.82
2019-02-20T08:13:04.933Z,11.73
2019-02-20T08:15:55.835Z,12.07
2019-02-20T08:18:46.872Z,11.22
2019-02-20T08:21:37.971Z,11.15
2019-02-20T08:24:28.832Z,11.55
2019-02-20T08:27:20.861Z,11.35
2019-02-20T08:30:14.401Z,11.63
2019-02-20T08:33:05.197Z,12.25
2019-02-20T08:35:56.461Z,13.30
2019-02-20T08:38:47.472Z,13.35
2019-02-20T08:41:38.465Z,11.35
2019-02-20T08:44:29.512Z,11.30
2019-02-20T08:47:19.632Z,11.20
2019-02-20T08:50:11.563Z,10.40
2019-02-20T08:53:01.636Z,12.13
2019-02-20T08:55:52.323Z,12.00
2019-02-20T08:58:42.450Z,11.30
2019-02-20T09:01:34.117Z,12.57
2019-02-20T09:04:24.343Z,12.30
2019-02-20T09:07:14.719Z,12.47
2019-02-20T09:10:05.445Z,12.07
2019-02-20T09:12:55.597Z,13.43
2019-02-20T09:15:45.759Z,13.70
2019-02-20T09:18:35.866Z,13.90
2019-02-20T09:21:26.125Z,13.93
2019-02-20T09:24:16.447Z,13.67
2019-02-20T09:27:06.619Z,14.13
2019-02-20T09:29:57.128Z,14.30
2019-02-20T09:32:47.332Z,14.43
2019-02-20T09:35:37.802Z,15.50
2019-02-20T09:38:28.086Z,15.70
2019-02-20T09:41:18.640Z,15.10
2019-02-20T09:44:08.923Z,15.10
2019-02-20T09:46:59.408Z,15.87
2019-02-20T09:49:49.633Z,16.23
2019-02-20T09:52:39.655Z,16.73
2019-02-20T09:55:29.776Z,17.17
2019-02-20T09:58:20.155Z,16.37
2019-02-20T10:01:11.156Z,16.50
2019-02-20T10:04:01.781Z,17.43
2019-02-20T10:06:52.100Z,16.70
2019-02-20T10:09:42.781Z,15.90
2019-02-20T10:12:34.219Z,17.27
2019-02-20T10:15:24.867Z,16.43
2019-02-20T10:18:15.210Z,16.83
2019-02-20T10:21:05.442Z,17.27
2019-02-20T10:23:55.806Z,16.73
2019-02-20T10:26:46.776Z,17.23
2019-02-20T10:29:37.098Z,15.63
2019-02-20T10:32:27.397Z,16.00
2019-02-20T10:35:17.699Z,17.07
2019-02-20T10:38:08.002Z,15.10
2019-02-20T10:40:58.094Z,15.83
2019-02-20T10:43:48.555Z,15.80
2019-02-20T10:46:39.019Z,16.70
2019-02-20T10:49:32.055Z,16.37
2019-02-20T10:52:22.249Z,16.47
2019-02-20T10:55:12.960Z,16.70
2019-02-20T10:58:03.143Z,16.07
2019-02-20T11:00:53.458Z,16.53
2019-02-20T11:03:43.696Z,16.03
2019-02-20T11:06:35.066Z,17.00
2019-02-20T11:09:25.295Z,16.43
2019-02-20T11:12:15.536Z,17.20
2019-02-20T11:15:05.962Z,17.20
2019-02-20T11:17:58.920Z,18.47
2019-02-20T11:20:49.173Z,17.17
2019-02-20T11:23:39.670Z,18.77
2019-02-20T11:26:31.098Z,16.80
2019-02-20T11:29:21.583Z,16.70
2019-02-20T11:32:11.967Z,16.60
2019-02-20T11:35:02.556Z,17.63
2019-02-20T11:37:52.836Z,16.63
2019-02-20T11:40:43.241Z,17.33
2019-02-20T11:43:33.518Z,16.33
2019-02-20T11:46:23.582Z,17.57
2019-02-20T11:49:13.872Z,16.70
2019-02-20T11:52:05.181Z,17.20
2019-02-20T11:54:57.190Z,17.03
2019-02-20T11:57:47.637Z,17.63
2019-02-20T12:00:38.061Z,15.90
2019-02-20T12:03:28.397Z,16.07
2019-02-20T12:06:18.825Z,16.70
2019-02-20T12:09:09.110Z,16.30
2019-02-20T12:11:59.386Z,17.50
2019-02-20T12:14:50.747Z,18.07
2019-02-20T12:17:41.083Z,17.33
2019-02-20T12:20:31.734Z,17.83
2019-02-20T12:23:22.039Z,17.77
2019-02-20T12:26:12.470Z,18.20
2019-02-20T12:29:02.794Z,18.30
2019-02-20T12:31:53.059Z,17.20
2019-02-20T12:34:43.550Z,18.03
2019-02-20T12:37:33.892Z,18.03
2019-02-20T12:40:24.179Z,17.77
2019-02-20T12:43:14.425Z,18.33
2019-02-20T12:46:04.840Z,18.63
2019-02-20T12:48:57.020Z,17.97
2019-02-20T12:51:47.315Z,17.33
2019-02-20T12:54:37.640Z,17.10
2019-02-20T12:57:27.863Z,16.97
2019-02-20T13:00:19.248Z,17.57
2019-02-20T13:03:09.353Z,18.10
2019-02-20T13:05:59.727Z,17.97
2019-02-20T13:08:50.278Z,17.60
2019-02-20T13:11:40.738Z,18.80
2019-02-20T13:14:30.955Z,18.53
2019-02-20T13:17:21.259Z,18.27
2019-02-20T13:20:11.363Z,18.40
2019-02-20T13:23:02.105Z,19.77
2019-02-20T13:25:52.454Z,17.73
2019-02-20T13:28:42.576Z,18.53
2019-02-20T13:31:32.968Z,18.47
2019-02-20T13:34:23.119Z,18.03
2019-02-20T13:37:13.641Z,17.53
2019-02-20T13:40:03.896Z,18.00
2019-02-20T13:42:54.085Z,18.87
2019-02-20T13:45:44.285Z,18.00
2019-02-20T13:48:35.009Z,18.00
2019-02-20T13:51:26.361Z,17.23
2019-02-20T13:54:16.630Z,17.77
2019-02-20T13:57:07.060Z,18.17
2019-02-20T13:59:57.646Z,18.00
2019-02-20T14:02:47.998Z,17.80
2019-02-20T14:05:38.457Z,17.73
2019-02-20T14:08:28.793Z,17.63
2019-02-20T14:11:19.356Z,18.57
2019-02-20T14:14:09.759Z,17.47
2019-02-20T14:17:00.129Z,17.33
2019-02-20T14:19:50.436Z,17.90
2019-02-20T14:22:40.730Z,18.17
2019-02-20T14:25:31.136Z,18.50
2019-02-20T14:28:21.383Z,19.13
2019-02-20T14:31:11.747Z,19.00
2019-02-20T14:34:02.021Z,18.47
2019-02-20T14:36:53.457Z,19.50
2019-02-20T14:39:43.863Z,19.87
2019-02-20T14:42:36.258Z,18.90
2019-02-20T14:45:27.061Z,18.20
2019-02-20T14:48:17.576Z,21.23
2019-02-20T14:51:07.998Z,21.03
2019-02-20T14:53:58.247Z,22.53
2019-02-20T14:56:48.575Z,22.77
2019-02-20T14:59:39.211Z,21.77
2019-02-20T15:02:30.078Z,20.87
2019-02-20T15:05:20.614Z,21.50
2019-02-20T15:08:11.010Z,20.40
2019-02-20T15:11:01.431Z,21.90
2019-02-20T15:13:54.184Z,21.80
2019-02-20T15:16:43.660Z,20.20
2019-02-20T15:19:34.098Z,21.17
2019-02-20T15:22:25.929Z,20.80
2019-02-20T15:25:16.367Z,20.00
2019-02-20T15:28:06.459Z,20.70
2019-02-20T15:30:57.146Z,19.60
2019-02-20T15:33:47.730Z,19.20
2019-02-20T15:36:38.048Z,18.87
2019-02-20T15:39:28.392Z,20.30
2019-02-20T15:42:18.940Z,18.80
2019-02-20T15:45:09.437Z,18.83
2019-02-20T15:47:59.686Z,18.87
2019-02-20T15:50:50.983Z,18.00
2019-02-20T15:53:41.313Z,17.33
2019-02-20T15:56:31.884Z,19.30
2019-02-20T15:59:21.995Z,18.10
2019-02-20T16:02:12.381Z,18.30
2019-02-20T16:05:02.646Z,17.60
2019-02-20T16:07:53.540Z,17.27
2019-02-20T16:10:43.968Z,17.47
2019-02-20T16:13:34.449Z,17.27
2019-02-20T16:16:24.763Z,17.80
2019-02-20T16:19:15.114Z,16.33
2019-02-20T16:22:05.226Z,16.27
2019-02-20T16:24:55.820Z,15.33
2019-02-20T16:27:47.837Z,14.83
2019-02-20T16:30:38.615Z,16.13
2019-02-20T16:33:29.110Z,14.77
2019-02-20T16:36:22.051Z,15.60
2019-02-20T16:39:12.087Z,15.97
2019-02-20T16:42:02.548Z,15.00
2019-02-20T16:44:52.879Z,16.53
2019-02-20T16:47:42.936Z,18.17
2019-02-20T16:50:33.724Z,18.13
2019-02-20T16:53:23.994Z,18.67
2019-02-20T16:56:14.459Z,20.77
2019-02-20T16:59:05.219Z,19.97
2019-02-20T17:01:55.599Z,20.77
2019-02-20T17:04:45.837Z,20.53
2019-02-20T17:07:36.012Z,20.43
2019-02-20T17:10:26.354Z,20.40
2019-02-20T17:13:16.812Z,20.83
2019-02-20T17:16:07.171Z,20.40
2019-02-20T17:18:57.354Z,21.87
2019-02-20T17:21:47.575Z,20.23
2019-02-20T17:24:37.529Z,20.77
2019-02-20T17:27:30.788Z,21.63
2019-02-20T17:30:20.801Z,21.60
2019-02-20T17:33:11.608Z,20.97
2019-02-20T17:36:01.707Z,21.47
2019-02-20T17:38:52.776Z,21.60
2019-02-20T17:41:43.067Z,20.73
2019-02-20T17:44:33.441Z,21.30
2019-02-20T17:47:23.661Z,22.50
2019-02-20T17:50:15.214Z,23.57
2019-02-20T17:53:05.164Z,27.90
2019-02-20T17:55:55.318Z,23.60
2019-02-20T17:58:45.639Z,21.83
2019-02-20T18:01:36.076Z,22.20
2019-02-20T18:04:26.130Z,22.30
2019-02-20T18:07:17.190Z,21.70
2019-02-20T18:10:10.625Z,23.07
2019-02-20T18:13:02.953Z,29.83
2019-02-20T18:15:53.111Z,57.30
2019-02-20T18:18:43.867Z,37.37
2019-02-20T18:21:34.422Z,27.20
2019-02-20T18:24:26.124Z,30.87
2019-02-20T18:27:16.291Z,26.90
2019-02-20T18:30:06.848Z,23.80
2019-02-20T18:32:57.804Z,25.73
2019-02-20T18:35:49.273Z,45.57
2019-02-20T18:38:39.529Z,31.10
2019-02-20T18:41:30.048Z,29.03
2019-02-20T18:44:20.440Z,27.30
2019-02-20T18:47:11.091Z,34.83
2019-02-20T18:50:01.500Z,30.87
2019-02-20T18:52:55.673Z,40.13
2019-02-20T18:55:46.000Z,62.67
2019-02-20T18:58:36.410Z,43.43
2019-02-20T19:01:26.918Z,26.77
2019-02-20T19:04:17.512Z,24.20
2019-02-20T19:07:12.471Z,22.77
2019-02-20T19:10:02.627Z,18.83
2019-02-20T19:13:28.924Z,16.43
2019-02-20T19:17:18.540Z,14.37
2019-02-20T19:20:55.027Z,13.10
2019-02-20T19:24:21.246Z,11.07
2019-02-20T19:27:33.239Z,9.00
2019-02-20T19:30:47.987Z,8.37
2019-02-20T19:33:57.063Z,8.27
2019-02-20T19:37:10.334Z,8.27
2019-02-20T19:40:43.275Z,7.93
2019-02-20T19:44:01.274Z,8.83
2019-02-20T19:47:24.042Z,8.30
2019-02-20T19:50:46.215Z,9.03
2019-02-20T19:54:33.805Z,10.60
2019-02-20T19:57:48.670Z,9.50
2019-02-20T20:01:20.011Z,9.70
2019-02-20T20:04:23.592Z,8.80
2019-02-20T20:07:55.636Z,9.90
2019-02-20T20:10:58.932Z,9.73
2019-02-20T20:14:33.462Z,10.40
2019-02-20T20:18:20.040Z,10.53
2019-02-20T20:21:38.823Z,13.33
2019-02-20T20:24:54.967Z,13.57
2019-02-20T20:28:35.726Z,13.33
2019-02-20T20:32:07.176Z,13.17
2019-02-20T20:35:40.385Z,13.63
2019-02-20T20:39:19.502Z,13.20
2019-02-20T20:43:04.187Z,20.63
2019-02-20T20:46:31.519Z,16.93
2019-02-20T20:50:04.977Z,11.00
2019-02-20T20:53:40.970Z,10.67
2019-02-20T20:57:00.408Z,10.73
2019-02-20T21:00:29.669Z,9.90
2019-02-20T21:03:19.711Z,9.83
2019-02-20T21:06:41.599Z,14.70
2019-02-20T21:10:18.876Z,11.00
2019-02-20T21:13:34.804Z,12.10
2019-02-20T21:16:36.772Z,10.63
2019-02-20T21:20:08.009Z,10.97
2019-02-20T21:23:25.104Z,10.33
2019-02-20T21:26:44.537Z,9.83
2019-02-20T21:29:52.358Z,10.00
2019-02-20T21:33:34.327Z,10.37
2019-02-20T21:36:36.359Z,9.83
2019-02-20T21:39:41.779Z,10.43
2019-02-20T21:42:58.058Z,10.43
2019-02-20T21:46:33.710Z,12.43
2019-02-20T21:49:42.692Z,12.03
2019-02-20T21:53:09.898Z,13.93
2019-02-20T21:56:23.503Z,15.77
2019-02-20T22:00:00.861Z,15.70
2019-02-20T22:02:59.894Z,15.90
2019-02-20T22:06:25.184Z,15.63
2019-02-20T22:09:39.446Z,15.47
2019-02-20T22:13:06.598Z,15.10
2019-02-20T22:16:11.461Z,14.77
2019-02-20T22:19:53.580Z,14.43
2019-02-20T22:23:20.318Z,13.10
2019-02-20T22:26:46.336Z,14.43
2019-02-20T22:30:13.701Z,13.33
2019-02-20T22:33:32.085Z,13.90
2019-02-20T22:37:30.627Z,14.03
2019-02-20T22:41:02.499Z,14.03
2019-02-20T22:44:58.311Z,13.50
2019-02-20T22:48:23.690Z,12.70
2019-02-20T22:51:32.033Z,12.87
2019-02-20T22:55:06.584Z,12.57
2019-02-20T22:58:20.075Z,12.33
2019-02-20T23:02:00.476Z,12.63
2019-02-20T23:05:30.992Z,12.47
2019-02-20T23:09:00.540Z,13.33
2019-02-20T23:12:30.252Z,13.23
2019-02-20T23:15:20.463Z,13.07
2019-02-20T23:18:10.754Z,12.97
2019-02-20T23:21:01.724Z,13.70
2019-02-20T23:23:52.009Z,13.53
2019-02-20T23:26:42.335Z,14.13
2019-02-20T23:29:32.638Z,14.50
2019-02-20T23:32:22.863Z,14.10
2019-02-20T23:35:12.840Z,15.23
2019-02-20T23:38:02.868Z,14.90
2019-02-20T23:40:53.125Z,15.43
2019-02-20T23:43:43.570Z,16.10
2019-02-20T23:46:34.001Z,16.90
2019-02-20T23:49:24.394Z,18.27
2019-02-20T23:52:14.617Z,19.23
2019-02-20T23:55:06.654Z,18.60
2019-02-20T23:57:59.462Z,20.73
